Time;durP1;ratioP1;P1;durP2;ratioP2;P2;SDS_P1;SDS_P2;PMS_P1;PMS_P2;Temp;Humidity;BMP_temperature;BMP_pressure;BME280_temperature;BME280_humidity;BME280_pressure;Samples;Min_cycle;Max_cycle;Signal;HPM_P1;HPM_P2
2021/03/12 00:00:03;;;;;;;0.53;0.40;;;2.10;99.90;;;;;;2081611;28;20226;-69
2021/03/12 00:01:06;;;;;;;0.95;0.40;;;2.20;99.90;;;;;;2081021;28;20185;-69
2021/03/12 00:02:08;;;;;;;0.65;0.40;;;2.30;99.90;;;;;;2089162;28;20184;-69
2021/03/12 00:03:31;;;;;;;0.60;0.40;;;2.30;99.90;;;;;;2088926;28;20169;-69
2021/03/12 00:04:32;;;;;;;0.88;0.40;;;2.50;99.90;;;;;;2081514;28;20184;-70
2021/03/12 00:05:33;;;;;;;0.90;0.47;;;2.50;99.90;;;;;;2081267;28;20188;-70
2021/03/12 00:06:34;;;;;;;3.42;0.60;;;2.60;99.90;;;;;;2088995;28;20262;-69
2021/03/12 00:07:35;;;;;;;0.77;0.50;;;2.70;99.90;;;;;;2089080;28;20558;-69
2021/03/12 00:08:42;;;;;;;0.40;0.40;;;2.70;99.90;;;;;;2089140;28;20259;-68
2021/03/12 00:09:43;;;;;;;2.30;0.50;;;2.80;99.90;;;;;;2088220;28;20199;-68
2021/03/12 00:10:45;;;;;;;0.90;0.40;;;2.80;99.90;;;;;;2081006;28;20624;-69
2021/03/12 00:11:46;;;;;;;1.60;0.50;;;2.80;99.90;;;;;;2080927;28;20520;-69
2021/03/12 00:12:47;;;;;;;0.90;0.60;;;2.90;99.90;;;;;;2081391;28;20189;-69
2021/03/12 00:13:48;;;;;;;3.77;0.70;;;2.90;99.90;;;;;;2081452;28;20632;-69
2021/03/12 00:14:48;;;;;;;2.23;0.60;;;3.00;99.90;;;;;;2081302;28;20216;-69
2021/03/12 00:15:49;;;;;;;1.43;0.60;;;3.00;99.90;;;;;;2085232;28;20285;-68
2021/03/12 00:16:50;;;;;;;1.60;0.60;;;3.00;99.90;;;;;;2080633;28;20188;-69
2021/03/12 00:17:51;;;;;;;1.63;0.60;;;3.00;99.90;;;;;;2080663;28;20201;-69
2021/03/12 00:18:52;;;;;;;2.85;0.73;;;3.00;99.90;;;;;;2089657;28;20211;-70
2021/03/12 00:19:52;;;;;;;0.60;0.50;;;3.00;99.90;;;;;;2089441;28;20181;-70
2021/03/12 00:20:53;;;;;;;1.50;0.70;;;3.10;99.90;;;;;;2089053;28;20219;-69
2021/03/12 00:21:54;;;;;;;0.63;0.43;;;3.00;99.90;;;;;;2089638;28;20207;-70
2021/03/12 00:22:55;;;;;;;0.53;0.43;;;3.10;99.90;;;;;;2089793;28;20181;-69
2021/03/12 00:23:56;;;;;;;2.13;0.63;;;3.10;99.90;;;;;;2089668;28;20177;-69
2021/03/12 00:24:57;;;;;;;1.90;0.70;;;3.10;99.90;;;;;;2089298;28;20226;-69
2021/03/12 00:25:58;;;;;;;0.40;0.40;;;3.10;99.90;;;;;;2089398;28;20196;-69
2021/03/12 00:26:59;;;;;;;4.67;0.70;;;3.10;99.90;;;;;;2080708;28;20188;-69
2021/03/12 00:28:00;;;;;;;1.00;0.50;;;3.20;99.90;;;;;;2080879;28;20180;-67
2021/03/12 00:29:00;;;;;;;2.40;0.60;;;3.20;99.90;;;;;;2072540;28;20196;-69
2021/03/12 00:30:04;;;;;;;3.90;0.60;;;3.10;99.90;;;;;;2072503;28;20194;-68
2021/03/12 00:31:06;;;;;;;1.80;0.52;;;3.20;99.90;;;;;;2088724;28;20608;-69
2021/03/12 00:32:08;;;;;;;2.17;0.68;;;3.20;99.90;;;;;;2089521;28;20196;-68
2021/03/12 00:33:09;;;;;;;2.78;0.50;;;3.20;99.90;;;;;;2089385;28;20187;-69
2021/03/12 00:34:09;;;;;;;2.83;0.80;;;3.20;99.90;;;;;;2089833;28;20231;-69
2021/03/12 00:35:11;;;;;;;1.93;0.50;;;3.20;99.90;;;;;;2089379;28;20183;-69
2021/03/12 00:36:12;;;;;;;1.27;0.80;;;3.20;99.90;;;;;;2080895;28;20687;-69
2021/03/12 00:37:13;;;;;;;2.35;0.60;;;3.20;99.90;;;;;;2072277;28;20218;-69
2021/03/12 00:38:14;;;;;;;2.03;0.77;;;3.20;99.90;;;;;;2081112;28;20173;-69
2021/03/12 00:39:15;;;;;;;1.55;0.55;;;3.20;99.90;;;;;;2089071;28;20181;-69
2021/03/12 00:40:32;;;;;;;1.37;0.60;;;3.20;99.90;;;;;;2089098;28;20168;-68
2021/03/12 00:41:33;;;;;;;4.07;0.70;;;3.20;99.90;;;;;;2088846;28;20567;-69
2021/03/12 00:42:33;;;;;;;2.47;0.77;;;3.20;99.90;;;;;;2089508;28;20188;-69
2021/03/12 00:43:36;;;;;;;1.60;0.60;;;3.30;99.90;;;;;;2089833;28;20282;-69
2021/03/12 00:44:37;;;;;;;5.18;0.73;;;3.20;99.90;;;;;;2080804;28;20181;-69
2021/03/12 00:45:42;;;;;;;2.70;0.70;;;3.30;99.90;;;;;;2080770;28;20283;-68
2021/03/12 00:46:42;;;;;;;1.30;0.80;;;3.20;99.90;;;;;;2081046;28;20264;-69
2021/03/12 00:47:44;;;;;;;2.30;0.80;;;3.20;99.90;;;;;;2080794;28;20180;-69
2021/03/12 00:48:45;;;;;;;2.38;0.90;;;3.20;99.90;;;;;;2080798;28;20663;-69
2021/03/12 00:49:45;;;;;;;1.57;0.63;;;3.30;99.90;;;;;;2080758;28;20249;-68
2021/03/12 00:50:46;;;;;;;2.00;0.60;;;3.30;99.90;;;;;;2089575;28;20734;-69
2021/03/12 00:51:47;;;;;;;1.42;0.55;;;3.30;99.90;;;;;;2089190;28;20188;-69
2021/03/12 00:52:48;;;;;;;1.93;0.90;;;3.30;99.90;;;;;;2089485;28;20279;-69
2021/03/12 00:53:49;;;;;;;2.93;0.80;;;3.30;99.90;;;;;;2089743;28;20208;-69
2021/03/12 00:54:50;;;;;;;2.30;0.60;;;3.30;99.90;;;;;;2089565;28;20259;-69
2021/03/12 00:55:51;;;;;;;2.20;0.60;;;3.30;99.90;;;;;;2089638;28;20881;-69
2021/03/12 00:56:52;;;;;;;3.45;0.52;;;3.30;99.90;;;;;;2081021;28;20251;-69
2021/03/12 00:57:53;;;;;;;1.53;0.80;;;3.30;99.90;;;;;;2080993;28;20242;-69
2021/03/12 00:58:53;;;;;;;1.80;0.60;;;3.30;99.90;;;;;;2089843;28;20177;-69
2021/03/12 00:59:54;;;;;;;3.97;0.70;;;3.20;99.90;;;;;;2089691;28;20562;-68
2021/03/12 01:00:55;;;;;;;1.63;0.80;;;3.30;99.90;;;;;;2088923;28;20211;-67
2021/03/12 01:01:55;;;;;;;3.47;0.67;;;3.20;99.90;;;;;;2089588;28;20667;-68
2021/03/12 01:02:58;;;;;;;3.70;0.63;;;3.20;99.90;;;;;;2089526;28;20297;-68
2021/03/12 01:03:59;;;;;;;1.58;0.60;;;3.20;99.90;;;;;;2089375;28;20173;-68
2021/03/12 01:04:59;;;;;;;2.70;1.00;;;3.30;99.90;;;;;;2089416;28;20177;-68
2021/03/12 01:06:00;;;;;;;3.70;0.90;;;3.20;99.90;;;;;;2089431;28;20207;-69
2021/03/12 01:07:01;;;;;;;4.30;0.80;;;3.30;99.90;;;;;;2089480;28;20172;-68
2021/03/12 01:08:02;;;;;;;3.93;0.80;;;3.30;99.90;;;;;;2089330;28;20701;-68
2021/03/12 01:09:04;;;;;;;3.17;0.90;;;3.30;99.90;;;;;;2089231;28;20176;-68
2021/03/12 01:10:06;;;;;;;1.92;0.80;;;3.40;99.90;;;;;;2089619;28;20195;-69
2021/03/12 01:11:07;;;;;;;3.85;0.90;;;3.30;99.90;;;;;;2080249;28;20185;-68
2021/03/12 01:12:08;;;;;;;2.27;0.90;;;3.30;99.90;;;;;;2080680;28;20187;-68
2021/03/12 01:13:09;;;;;;;2.10;1.00;;;3.30;99.90;;;;;;2089459;28;20211;-67
2021/03/12 01:14:09;;;;;;;4.82;0.90;;;3.30;99.90;;;;;;2089374;28;20221;-69
2021/03/12 01:15:14;;;;;;;2.27;0.87;;;3.20;99.90;;;;;;2089189;28;20609;-68
2021/03/12 01:16:16;;;;;;;2.50;0.80;;;3.20;99.90;;;;;;2080727;28;20192;-68
2021/03/12 01:17:17;;;;;;;4.60;0.90;;;3.10;99.90;;;;;;2072518;28;20221;-68
2021/03/12 01:18:18;;;;;;;3.13;0.60;;;3.10;99.90;;;;;;2080540;28;20202;-68
2021/03/12 01:19:19;;;;;;;1.53;0.63;;;3.00;99.90;;;;;;2080596;28;20181;-68
2021/03/12 01:20:26;;;;;;;3.08;1.00;;;3.10;99.90;;;;;;2080368;28;20241;-68
2021/03/12 01:21:27;;;;;;;2.33;0.70;;;3.00;99.90;;;;;;2088845;28;20168;-68
2021/03/12 01:22:28;;;;;;;4.87;0.87;;;3.00;99.90;;;;;;2089346;28;20208;-69
2021/03/12 01:23:28;;;;;;;2.77;0.97;;;3.00;99.90;;;;;;2089307;28;20180;-68
2021/03/12 01:24:29;;;;;;;2.97;1.00;;;3.00;99.90;;;;;;2089446;28;20212;-69
2021/03/12 01:25:43;;;;;;;2.40;0.90;;;3.00;99.90;;;;;;2080280;28;20219;-68
2021/03/12 01:26:44;;;;;;;3.17;0.93;;;3.00;99.90;;;;;;2082386;28;20161;-69
2021/03/12 01:27:45;;;;;;;3.63;0.80;;;3.00;99.90;;;;;;2090320;28;20652;-68
2021/03/12 01:28:46;;;;;;;1.25;0.60;;;3.10;99.90;;;;;;2090920;28;20564;-68
2021/03/12 01:29:47;;;;;;;2.00;0.80;;;3.10;99.90;;;;;;2090784;28;20191;-68
2021/03/12 01:30:49;;;;;;;3.47;0.80;;;3.10;99.90;;;;;;2090540;28;20918;-69
2021/03/12 01:31:50;;;;;;;2.45;0.82;;;3.10;99.90;;;;;;2082248;28;20245;-68
2021/03/12 01:32:51;;;;;;;1.97;1.10;;;3.10;99.90;;;;;;2082209;28;20181;-68
2021/03/12 01:33:52;;;;;;;2.33;0.98;;;3.00;99.90;;;;;;2091062;28;20209;-69
2021/03/12 01:34:52;;;;;;;3.27;0.80;;;2.90;99.90;;;;;;2090967;28;20208;-69
2021/03/12 01:35:53;;;;;;;1.40;1.00;;;2.90;99.90;;;;;;2090848;28;20197;-68
2021/03/12 01:36:54;;;;;;;1.17;0.77;;;2.90;99.90;;;;;;2091080;28;20214;-69
2021/03/12 01:37:55;;;;;;;2.33;0.80;;;2.90;99.90;;;;;;2090781;28;20172;-68
2021/03/12 01:38:56;;;;;;;2.15;0.75;;;2.90;99.90;;;;;;2081988;28;20349;-68
2021/03/12 01:39:57;;;;;;;1.57;0.80;;;2.80;99.90;;;;;;2073863;28;20729;-68
2021/03/12 01:40:58;;;;;;;5.55;1.00;;;2.80;99.90;;;;;;2081431;28;20716;-68
2021/03/12 01:41:59;;;;;;;1.73;0.90;;;2.70;99.90;;;;;;2090208;28;20181;-69
2021/03/12 01:43:02;;;;;;;2.53;0.80;;;2.70;99.90;;;;;;2091110;28;20925;-69
2021/03/12 01:44:05;;;;;;;2.90;0.90;;;2.70;99.90;;;;;;2082038;28;20276;-69
2021/03/12 01:45:08;;;;;;;2.35;0.80;;;2.70;99.90;;;;;;2082371;28;20189;-69
2021/03/12 01:46:09;;;;;;;2.50;0.85;;;2.60;99.90;;;;;;2082251;28;20197;-69
2021/03/12 01:47:10;;;;;;;1.33;0.80;;;2.60;99.90;;;;;;2084058;28;20240;-68
2021/03/12 01:48:21;;;;;;;2.03;0.85;;;2.60;99.90;;;;;;2090879;28;20227;-68
2021/03/12 01:49:22;;;;;;;2.15;0.70;;;2.60;99.90;;;;;;2090744;28;20172;-68
2021/03/12 01:50:22;;;;;;;1.43;0.50;;;2.60;99.90;;;;;;2090543;28;20180;-68
2021/03/12 01:51:23;;;;;;;0.70;0.70;;;2.60;99.90;;;;;;2090133;28;20183;-68
2021/03/12 01:52:24;;;;;;;2.27;0.50;;;2.60;99.90;;;;;;2090776;28;20231;-68
2021/03/12 01:53:27;;;;;;;1.13;0.60;;;2.70;99.90;;;;;;2090639;28;20651;-68
2021/03/12 01:54:27;;;;;;;1.70;0.68;;;2.70;99.90;;;;;;2090609;28;20180;-68
2021/03/12 01:55:33;;;;;;;0.67;0.57;;;2.70;99.90;;;;;;2090773;28;20607;-68
2021/03/12 01:56:33;;;;;;;0.85;0.40;;;2.70;99.90;;;;;;2090616;28;20187;-69
2021/03/12 01:57:34;;;;;;;1.57;0.87;;;2.70;99.90;;;;;;2081341;28;20239;-68
2021/03/12 01:58:35;;;;;;;3.43;0.60;;;2.70;99.90;;;;;;2081947;28;20181;-68
2021/03/12 01:59:36;;;;;;;3.90;0.90;;;2.70;99.90;;;;;;2090598;28;20385;-69
2021/03/12 02:00:37;;;;;;;2.80;0.93;;;2.70;99.90;;;;;;2090775;28;20246;-68
2021/03/12 02:01:38;;;;;;;3.20;0.70;;;2.70;99.90;;;;;;2089818;28;20172;-68
2021/03/12 02:02:40;;;;;;;0.70;0.60;;;2.80;99.90;;;;;;2081425;28;20272;-68
2021/03/12 02:03:40;;;;;;;2.97;0.70;;;2.80;99.90;;;;;;2081532;28;20181;-68
2021/03/12 02:04:41;;;;;;;2.07;0.77;;;2.80;99.90;;;;;;2090768;28;20276;-68
2021/03/12 02:05:42;;;;;;;2.40;1.17;;;2.70;99.90;;;;;;2090227;28;20192;-68
2021/03/12 02:06:43;;;;;;;1.83;0.70;;;2.80;99.90;;;;;;2090457;28;20191;-69
2021/03/12 02:07:44;;;;;;;2.77;0.83;;;2.70;99.90;;;;;;2090182;28;20260;-68
2021/03/12 02:08:45;;;;;;;2.70;0.95;;;2.80;99.90;;;;;;2090344;28;20176;-69
2021/03/12 02:09:45;;;;;;;2.10;0.80;;;2.80;99.90;;;;;;2090300;28;20242;-69
2021/03/12 02:10:47;;;;;;;5.07;0.90;;;2.80;99.90;;;;;;2090254;28;20223;-68
2021/03/12 02:12:24;;;;;;;1.63;0.70;;;2.80;99.90;;;;;;2089949;28;20176;-68
2021/03/12 02:13:30;;;;;;;2.60;0.68;;;2.80;99.90;;;;;;2089755;28;20161;-69
2021/03/12 02:14:43;;;;;;;1.20;0.70;;;2.80;99.90;;;;;;2089580;28;20214;-69
2021/03/12 02:15:54;;;;;;;4.13;0.88;;;2.80;99.90;;;;;;2081409;28;20260;-69
2021/03/12 02:17:09;;;;;;;1.17;0.70;;;2.80;99.90;;;;;;2074891;28;20638;-68
2021/03/12 02:18:29;;;;;;;2.05;0.98;;;2.80;99.90;;;;;;2075194;28;20174;-68
2021/03/12 02:20:15;;;;;;;1.63;0.80;;;2.80;99.90;;;;;;2083902;28;20173;-68
2021/03/12 02:21:35;;;;;;;2.25;0.90;;;2.80;99.90;;;;;;2089461;28;20191;-68
2021/03/12 02:22:41;;;;;;;1.90;0.60;;;2.80;99.90;;;;;;2081459;28;20660;-68
2021/03/12 02:23:59;;;;;;;2.97;0.95;;;2.80;99.90;;;;;;2082394;28;20621;-69
2021/03/12 02:25:12;;;;;;;3.60;0.90;;;2.80;99.90;;;;;;2090119;28;20674;-69
2021/03/12 02:26:41;;;;;;;1.58;0.80;;;2.80;99.90;;;;;;2081456;28;20196;-68
2021/03/12 02:27:44;;;;;;;2.55;0.80;;;2.80;99.90;;;;;;2085278;28;20171;-68
2021/03/12 02:28:48;;;;;;;2.17;1.00;;;2.80;99.90;;;;;;2081428;28;20187;-69
2021/03/12 02:29:56;;;;;;;4.70;0.90;;;2.90;99.90;;;;;;2073632;28;20181;-70
2021/03/12 02:30:58;;;;;;;3.72;1.45;;;2.90;99.90;;;;;;2073783;28;20174;-68
2021/03/12 02:32:00;;;;;;;4.30;1.40;;;2.90;99.90;;;;;;2073286;28;20189;-68
2021/03/12 02:33:02;;;;;;;3.95;1.00;;;2.90;99.90;;;;;;2065445;28;20233;-68
2021/03/12 02:34:06;;;;;;;3.20;0.80;;;2.90;99.90;;;;;;2073711;28;20193;-68
2021/03/12 02:35:16;;;;;;;3.28;1.10;;;2.90;99.90;;;;;;2090395;28;20263;-69
2021/03/12 02:36:19;;;;;;;2.55;0.73;;;2.80;99.90;;;;;;2081379;28;20189;-68
2021/03/12 02:37:22;;;;;;;3.67;1.00;;;2.80;99.90;;;;;;2073601;28;20215;-69
2021/03/12 02:38:26;;;;;;;2.75;0.95;;;2.80;99.90;;;;;;2081918;28;20180;-68
2021/03/12 02:39:30;;;;;;;4.57;0.98;;;2.80;99.90;;;;;;2090344;28;20651;-68
2021/03/12 02:40:32;;;;;;;2.67;0.90;;;2.70;99.90;;;;;;2081585;28;20597;-68
2021/03/12 02:41:34;;;;;;;7.28;1.63;;;2.70;99.90;;;;;;2073081;28;20190;-69
2021/03/12 02:42:39;;;;;;;3.78;0.80;;;2.60;99.90;;;;;;2081731;28;20181;-68
2021/03/12 02:43:40;;;;;;;5.25;0.90;;;2.60;99.90;;;;;;2081602;28;20229;-68
2021/03/12 02:44:42;;;;;;;3.53;0.90;;;2.50;99.90;;;;;;2081808;28;20179;-68
2021/03/12 02:45:44;;;;;;;2.70;0.90;;;2.50;99.90;;;;;;2081322;28;20757;-69
2021/03/12 02:46:47;;;;;;;2.40;0.82;;;2.50;99.90;;;;;;2073537;28;20185;-69
2021/03/12 02:47:48;;;;;;;1.42;0.90;;;2.50;99.90;;;;;;2081793;28;20177;-68
2021/03/12 02:48:49;;;;;;;1.60;0.80;;;2.50;99.90;;;;;;2090291;28;20183;-70
2021/03/12 02:49:51;;;;;;;3.45;1.10;;;2.40;99.90;;;;;;2090280;28;20176;-69
2021/03/12 02:50:52;;;;;;;1.63;0.68;;;2.40;99.90;;;;;;2081022;28;20184;-69
2021/03/12 02:51:55;;;;;;;1.75;0.90;;;2.40;99.90;;;;;;2073325;28;20169;-69
2021/03/12 02:52:57;;;;;;;2.35;0.70;;;2.40;99.90;;;;;;2081752;28;20430;-69
2021/03/12 02:53:58;;;;;;;3.03;0.80;;;2.40;99.90;;;;;;2089860;28;20192;-69
2021/03/12 02:54:59;;;;;;;1.73;0.70;;;2.40;99.90;;;;;;2081605;28;20177;-69
2021/03/12 02:56:00;;;;;;;2.03;0.70;;;2.40;99.90;;;;;;2073234;28;20201;-69
2021/03/12 02:57:02;;;;;;;1.15;0.80;;;2.40;99.90;;;;;;2073088;28;20220;-69
2021/03/12 02:58:05;;;;;;;1.20;0.70;;;2.40;99.90;;;;;;2081408;28;20183;-69
2021/03/12 02:59:06;;;;;;;1.13;0.60;;;2.40;99.90;;;;;;2081479;28;20189;-69
2021/03/12 03:00:08;;;;;;;3.90;0.80;;;2.30;99.90;;;;;;2073106;28;20181;-69
2021/03/12 03:01:10;;;;;;;1.98;0.80;;;2.30;99.90;;;;;;2080741;28;20185;-69
2021/03/12 03:02:11;;;;;;;4.10;0.60;;;2.30;99.90;;;;;;2081419;28;20188;-69
2021/03/12 03:03:15;;;;;;;2.72;0.90;;;2.20;99.90;;;;;;2081025;28;20177;-69
2021/03/12 03:04:17;;;;;;;1.45;0.63;;;2.10;99.90;;;;;;2089606;28;20183;-69
2021/03/12 03:05:18;;;;;;;0.90;0.60;;;2.00;99.90;;;;;;2090161;28;20185;-69
2021/03/12 03:06:19;;;;;;;2.47;0.80;;;2.00;99.90;;;;;;2081421;28;20260;-69
2021/03/12 03:07:21;;;;;;;3.20;1.27;;;1.90;99.90;;;;;;2081266;28;20431;-69
2021/03/12 03:08:22;;;;;;;1.25;0.70;;;1.90;99.90;;;;;;2089619;28;20184;-69
2021/03/12 03:09:24;;;;;;;0.50;0.50;;;1.80;99.90;;;;;;2090075;28;20191;-69
2021/03/12 03:10:26;;;;;;;3.85;0.50;;;1.80;99.90;;;;;;2081444;28;20188;-69
2021/03/12 03:11:27;;;;;;;2.97;0.55;;;1.70;99.90;;;;;;2080509;28;20189;-68
2021/03/12 03:12:29;;;;;;;0.40;0.40;;;1.70;99.90;;;;;;2080981;28;20189;-69
2021/03/12 03:13:32;;;;;;;0.90;0.32;;;1.70;99.90;;;;;;2081076;28;20272;-69
2021/03/12 03:14:33;;;;;;;0.22;0.22;;;1.70;99.90;;;;;;2081216;28;20193;-69
2021/03/12 03:15:36;;;;;;;0.63;0.55;;;1.70;99.90;;;;;;2081021;28;20183;-69
2021/03/12 03:16:38;;;;;;;0.77;0.30;;;1.80;99.90;;;;;;2081083;28;20559;-69
2021/03/12 03:17:40;;;;;;;0.30;0.30;;;1.80;99.90;;;;;;2081474;28;20276;-69
2021/03/12 03:18:41;;;;;;;0.40;0.40;;;1.80;99.90;;;;;;2089340;28;20187;-68
2021/03/12 03:19:49;;;;;;;0.47;0.40;;;1.80;99.90;;;;;;2089650;28;20180;-68
2021/03/12 03:20:51;;;;;;;0.55;0.50;;;1.90;99.90;;;;;;2080417;28;20610;-69
2021/03/12 03:21:52;;;;;;;0.55;0.38;;;1.90;99.90;;;;;;2081098;28;20601;-69
2021/03/12 03:22:55;;;;;;;0.30;0.30;;;1.90;99.90;;;;;;2089320;28;20188;-69
2021/03/12 03:23:55;;;;;;;1.55;0.98;;;2.00;99.90;;;;;;2089715;28;20558;-69
2021/03/12 03:24:56;;;;;;;0.73;0.50;;;1.90;99.90;;;;;;2081191;28;20280;-69
2021/03/12 03:25:57;;;;;;;0.40;0.40;;;2.00;99.90;;;;;;2080731;28;20292;-68
2021/03/12 03:26:58;;;;;;;4.00;0.50;;;2.00;99.90;;;;;;2089508;28;20183;-69
2021/03/12 03:27:58;;;;;;;1.97;0.70;;;2.00;99.90;;;;;;2089774;28;20540;-69
2021/03/12 03:28:59;;;;;;;0.80;0.40;;;2.00;99.90;;;;;;2089858;28;20262;-68
2021/03/12 03:30:00;;;;;;;2.77;0.70;;;2.00;99.90;;;;;;2089511;28;20592;-69
2021/03/12 03:31:02;;;;;;;1.43;0.50;;;2.00;99.90;;;;;;2089217;28;20207;-69
2021/03/12 03:32:04;;;;;;;3.67;1.02;;;2.10;99.90;;;;;;2081041;28;20232;-69
2021/03/12 03:33:05;;;;;;;7.20;0.75;;;2.10;99.90;;;;;;2081055;28;20192;-69
2021/03/12 03:34:05;;;;;;;5.10;0.67;;;2.10;99.90;;;;;;2089053;28;20655;-68
2021/03/12 03:35:11;;;;;;;2.47;0.70;;;2.10;99.90;;;;;;2089179;28;20187;-69
2021/03/12 03:36:13;;;;;;;1.90;0.60;;;2.10;99.90;;;;;;2088954;28;20203;-69
2021/03/12 03:37:13;;;;;;;2.83;0.70;;;2.00;99.90;;;;;;2089672;28;20212;-69
2021/03/12 03:38:14;;;;;;;4.70;0.93;;;2.10;99.90;;;;;;2089600;28;20194;-69
2021/03/12 03:39:15;;;;;;;4.83;1.27;;;2.10;99.90;;;;;;2089615;28;20191;-69
2021/03/12 03:40:16;;;;;;;3.97;1.53;;;2.00;99.90;;;;;;2089508;28;20177;-69
2021/03/12 03:41:18;;;;;;;5.13;1.13;;;2.00;99.90;;;;;;2089108;28;20567;-69
2021/03/12 03:42:20;;;;;;;5.00;0.95;;;2.00;99.90;;;;;;2091366;28;20585;-69
2021/03/12 03:43:28;;;;;;;4.72;0.85;;;2.00;99.90;;;;;;2089164;28;20176;-69
2021/03/12 03:44:34;;;;;;;3.40;0.90;;;2.00;99.90;;;;;;2081109;28;20176;-69
2021/03/12 03:45:35;;;;;;;5.50;1.00;;;2.00;99.90;;;;;;2081249;28;20656;-69
2021/03/12 03:46:39;;;;;;;4.13;1.00;;;2.00;99.90;;;;;;2080737;28;20235;-69
2021/03/12 03:47:42;;;;;;;3.47;1.00;;;2.00;99.90;;;;;;2072883;28;20248;-69
2021/03/12 03:48:44;;;;;;;6.35;1.17;;;2.00;99.90;;;;;;2081127;28;20633;-68
2021/03/12 03:49:45;;;;;;;5.28;1.10;;;2.00;99.90;;;;;;2089046;28;20781;-69
2021/03/12 03:50:46;;;;;;;3.57;0.80;;;2.00;99.90;;;;;;2080475;28;20204;-70
2021/03/12 03:51:48;;;;;;;4.30;1.20;;;1.90;99.90;;;;;;2072149;28;20200;-69
2021/03/12 03:52:49;;;;;;;5.00;1.05;;;1.90;99.90;;;;;;2072688;28;20185;-69
2021/03/12 03:53:50;;;;;;;5.53;1.30;;;1.90;99.90;;;;;;2072897;28;20190;-69
2021/03/12 03:54:53;;;;;;;2.45;1.05;;;1.90;99.90;;;;;;2080952;28;20181;-68
2021/03/12 03:55:54;;;;;;;4.25;1.25;;;1.90;99.90;;;;;;2080791;28;20229;-69
2021/03/12 03:56:55;;;;;;;6.68;1.42;;;1.80;99.90;;;;;;2077329;28;20201;-69
2021/03/12 03:58:00;;;;;;;5.72;1.02;;;1.80;99.90;;;;;;2089490;28;20180;-68
2021/03/12 03:59:01;;;;;;;6.22;1.55;;;1.80;99.90;;;;;;2097228;28;20190;-69
2021/03/12 04:00:05;;;;;;;7.82;1.10;;;1.80;99.90;;;;;;2097133;28;20682;-69
2021/03/12 04:01:07;;;;;;;8.25;1.17;;;1.80;99.90;;;;;;2088999;28;20188;-68
2021/03/12 04:02:14;;;;;;;4.05;1.20;;;1.80;99.90;;;;;;2089482;28;20211;-69
2021/03/12 04:03:15;;;;;;;3.75;1.05;;;1.80;99.90;;;;;;2088980;28;20177;-69
2021/03/12 04:04:16;;;;;;;6.63;1.13;;;1.80;99.90;;;;;;2080813;28;20199;-68
2021/03/12 04:05:18;;;;;;;4.75;1.13;;;1.80;99.90;;;;;;2089048;28;20176;-69
2021/03/12 04:06:20;;;;;;;4.80;1.08;;;1.80;99.90;;;;;;2088913;28;20195;-69
2021/03/12 04:07:21;;;;;;;6.75;1.25;;;1.90;99.90;;;;;;2089177;28;20645;-69
2021/03/12 04:08:23;;;;;;;4.50;1.10;;;1.80;99.90;;;;;;2089024;28;20663;-69
2021/03/12 04:09:24;;;;;;;7.85;1.42;;;1.80;99.90;;;;;;2080940;28;20700;-69
2021/03/12 04:10:25;;;;;;;5.35;1.00;;;1.90;99.90;;;;;;2089262;28;20188;-68
2021/03/12 04:11:27;;;;;;;3.97;1.10;;;1.80;99.90;;;;;;2088315;28;20311;-69
2021/03/12 04:12:28;;;;;;;8.60;1.20;;;1.90;99.90;;;;;;2081043;28;20194;-69
2021/03/12 04:13:30;;;;;;;7.25;1.38;;;1.80;99.90;;;;;;2088776;28;20704;-68
2021/03/12 04:14:31;;;;;;;4.20;1.10;;;1.90;99.90;;;;;;2088846;28;20184;-69
2021/03/12 04:15:32;;;;;;;4.35;1.10;;;1.90;99.90;;;;;;2088901;28;20602;-69
2021/03/12 04:16:33;;;;;;;2.00;0.90;;;1.80;99.90;;;;;;2089099;28;20230;-68
2021/03/12 04:17:35;;;;;;;6.00;1.33;;;1.80;99.90;;;;;;2089030;28;20548;-69
2021/03/12 04:18:36;;;;;;;5.20;1.20;;;1.80;99.90;;;;;;2089277;28;20251;-68
2021/03/12 04:19:39;;;;;;;3.63;1.07;;;1.80;99.90;;;;;;2089020;28;20184;-69
2021/03/12 04:20:41;;;;;;;3.70;1.15;;;1.80;99.90;;;;;;2089556;28;20433;-69
2021/03/12 04:21:42;;;;;;;8.55;1.77;;;1.80;99.90;;;;;;2088645;28;20647;-67
2021/03/12 04:22:44;;;;;;;4.25;0.98;;;1.70;99.90;;;;;;2089052;28;20199;-69
2021/03/12 04:23:44;;;;;;;6.47;1.13;;;1.70;99.90;;;;;;2088850;28;20688;-68
2021/03/12 04:24:45;;;;;;;3.67;1.00;;;1.70;99.90;;;;;;2088859;28;20186;-69
2021/03/12 04:25:47;;;;;;;2.80;0.87;;;1.70;99.90;;;;;;2088559;28;20458;-69
2021/03/12 04:26:48;;;;;;;4.70;1.20;;;1.70;99.90;;;;;;2080752;28;20536;-69
2021/03/12 04:27:49;;;;;;;4.80;1.02;;;1.70;99.90;;;;;;2088849;28;20554;-69
2021/03/12 04:28:50;;;;;;;2.03;0.90;;;1.70;99.90;;;;;;2088619;28;20203;-69
2021/03/12 04:29:52;;;;;;;4.07;1.00;;;1.70;99.90;;;;;;2089045;28;20787;-69
2021/03/12 04:30:52;;;;;;;6.85;1.30;;;1.70;99.90;;;;;;2088714;28;20431;-68
2021/03/12 04:31:54;;;;;;;6.17;1.00;;;1.60;99.90;;;;;;2088904;28;20623;-69
2021/03/12 04:32:56;;;;;;;5.53;1.08;;;1.60;99.90;;;;;;2080515;28;20176;-68
2021/03/12 04:33:56;;;;;;;3.25;1.13;;;1.60;99.90;;;;;;2080705;28;20327;-69
2021/03/12 04:34:57;;;;;;;2.33;0.80;;;1.60;99.90;;;;;;2088677;28;20181;-69
2021/03/12 04:35:59;;;;;;;1.67;0.70;;;1.60;99.90;;;;;;2088873;28;20282;-68
2021/03/12 04:37:01;;;;;;;3.00;0.70;;;1.60;99.90;;;;;;2088895;28;20183;-68
2021/03/12 04:38:03;;;;;;;5.00;1.13;;;1.60;99.90;;;;;;2088912;28;20184;-68
2021/03/12 04:39:05;;;;;;;4.80;1.58;;;1.60;99.90;;;;;;2089026;28;20236;-68
2021/03/12 04:40:07;;;;;;;4.43;1.23;;;1.60;99.90;;;;;;2089447;28;20263;-69
2021/03/12 04:41:08;;;;;;;4.22;0.85;;;1.50;99.90;;;;;;2088126;28;20191;-68
2021/03/12 04:42:11;;;;;;;2.83;0.93;;;1.50;99.90;;;;;;2088944;28;20654;-69
2021/03/12 04:43:12;;;;;;;3.38;0.90;;;1.50;99.90;;;;;;2089154;28;20183;-69
2021/03/12 04:44:14;;;;;;;7.28;1.23;;;1.50;99.90;;;;;;2089282;28;20176;-69
2021/03/12 04:45:18;;;;;;;5.10;0.95;;;1.60;99.90;;;;;;2089633;28;20191;-68
2021/03/12 04:46:19;;;;;;;3.25;0.98;;;1.50;99.90;;;;;;2089377;28;20173;-66
2021/03/12 04:47:20;;;;;;;3.53;1.00;;;1.50;99.90;;;;;;2088992;28;20302;-68
2021/03/12 04:48:22;;;;;;;2.50;1.17;;;1.60;99.90;;;;;;2089074;28;20686;-69
2021/03/12 04:49:23;;;;;;;5.03;1.20;;;1.60;99.90;;;;;;2097181;28;20171;-69
2021/03/12 04:50:25;;;;;;;5.60;1.15;;;1.60;99.90;;;;;;2088622;28;20187;-68
2021/03/12 04:51:26;;;;;;;3.33;1.30;;;1.60;99.90;;;;;;2080045;28;20316;-69
2021/03/12 04:52:27;;;;;;;3.43;0.90;;;1.60;99.90;;;;;;2089044;28;20191;-69
2021/03/12 04:53:31;;;;;;;2.00;0.90;;;1.60;99.90;;;;;;2088592;28;20183;-68
2021/03/12 04:54:33;;;;;;;3.47;1.10;;;1.60;99.90;;;;;;2088721;28;20188;-68
2021/03/12 04:55:34;;;;;;;2.20;0.90;;;1.50;99.90;;;;;;2088828;28;20199;-69
2021/03/12 04:56:37;;;;;;;4.40;1.00;;;1.60;99.90;;;;;;2089394;28;20191;-69
2021/03/12 04:57:39;;;;;;;4.07;1.00;;;1.60;99.90;;;;;;2089052;28;20272;-68
2021/03/12 04:58:40;;;;;;;3.72;0.90;;;1.60;99.90;;;;;;2088973;28;20581;-69
2021/03/12 04:59:42;;;;;;;4.18;1.30;;;1.60;99.90;;;;;;2088645;28;20192;-69
2021/03/12 05:00:42;;;;;;;1.98;0.65;;;1.60;99.90;;;;;;2088798;28;20195;-69
2021/03/12 05:01:43;;;;;;;3.23;0.90;;;1.60;99.90;;;;;;2096530;28;20218;-68
2021/03/12 05:02:44;;;;;;;4.60;0.90;;;1.60;99.90;;;;;;2090694;28;20180;-69
2021/03/12 05:03:45;;;;;;;2.42;1.20;;;1.60;99.90;;;;;;2090472;28;20172;-69
2021/03/12 05:04:50;;;;;;;4.93;1.30;;;1.60;99.90;;;;;;2082095;28;20703;-69
2021/03/12 05:05:54;;;;;;;5.97;0.90;;;1.50;99.90;;;;;;2090274;28;20227;-69
2021/03/12 05:06:55;;;;;;;4.40;1.00;;;1.50;99.90;;;;;;2090770;28;20180;-69
2021/03/12 05:07:56;;;;;;;3.67;0.83;;;1.50;99.90;;;;;;2090458;28;20179;-69
2021/03/12 05:08:57;;;;;;;3.20;1.20;;;1.50;99.90;;;;;;2090529;28;20183;-69
2021/03/12 05:09:58;;;;;;;3.35;1.33;;;1.50;99.90;;;;;;2090368;28;20183;-69
2021/03/12 05:11:09;;;;;;;2.03;1.40;;;1.50;99.90;;;;;;2089972;28;20703;-69
2021/03/12 05:12:10;;;;;;;3.72;1.30;;;1.50;99.90;;;;;;2090114;28;20259;-69
2021/03/12 05:13:11;;;;;;;4.38;1.05;;;1.40;99.90;;;;;;2090536;28;20191;-69
2021/03/12 05:14:14;;;;;;;3.07;1.10;;;1.40;99.90;;;;;;2090810;28;20192;-69
2021/03/12 05:15:14;;;;;;;3.25;1.00;;;1.40;99.90;;;;;;2090582;28;20698;-69
2021/03/12 05:16:15;;;;;;;1.83;0.93;;;1.40;99.90;;;;;;2089908;28;20214;-69
2021/03/12 05:17:16;;;;;;;7.43;1.07;;;1.40;99.90;;;;;;2116132;22;20211;-63
2021/03/12 05:18:17;;;;;;;4.37;0.90;;;1.40;99.90;;;;;;2087335;28;20246;-64
2021/03/12 05:19:18;;;;;;;3.15;0.90;;;1.40;99.90;;;;;;2090688;28;20226;-63
2021/03/12 05:20:18;;;;;;;2.60;0.80;;;1.40;99.90;;;;;;2090513;28;20325;-63
2021/03/12 05:21:19;;;;;;;5.13;1.07;;;1.40;99.90;;;;;;2089955;28;20565;-64
2021/03/12 05:22:20;;;;;;;3.40;0.93;;;1.40;99.90;;;;;;2090531;28;20760;-63
2021/03/12 05:23:23;;;;;;;4.00;0.90;;;1.40;99.90;;;;;;2090539;28;20534;-63
2021/03/12 05:24:24;;;;;;;2.25;0.90;;;1.50;99.90;;;;;;2090374;28;20182;-63
2021/03/12 05:25:25;;;;;;;3.90;0.90;;;1.50;99.90;;;;;;2090397;28;20177;-65
2021/03/12 05:26:26;;;;;;;5.40;1.17;;;1.50;99.90;;;;;;2090354;28;20241;-63
2021/03/12 05:27:27;;;;;;;2.00;1.05;;;1.50;99.90;;;;;;2081692;28;20181;-64
2021/03/12 05:28:28;;;;;;;2.50;0.83;;;1.60;99.90;;;;;;2081415;28;20662;-63
2021/03/12 05:29:28;;;;;;;3.15;1.25;;;1.50;99.90;;;;;;2090406;28;20570;-63